createdAt,value
2022-11-21T00:01:32.744Z,16.62
2022-11-21T00:04:01.836Z,16.64
2022-11-21T00:06:30.918Z,16.60
2022-11-21T00:08:59.891Z,16.57
2022-11-21T00:11:28.948Z,16.39
2022-11-21T00:13:58.134Z,16.38
2022-11-21T00:16:27.235Z,16.34
2022-11-21T00:18:56.420Z,16.20
2022-11-21T00:21:25.531Z,16.23
2022-11-21T00:23:55.213Z,16.14
2022-11-21T00:26:24.040Z,16.11
2022-11-21T00:28:53.177Z,16.09
2022-11-21T00:31:25.070Z,16.13
2022-11-21T00:33:54.368Z,15.99
2022-11-21T00:36:23.284Z,15.97
2022-11-21T00:38:52.906Z,15.98
2022-11-21T00:41:22.034Z,15.94
2022-11-21T00:43:51.188Z,15.87
2022-11-21T00:46:20.437Z,15.93
2022-11-21T00:48:49.279Z,15.94
2022-11-21T00:51:18.545Z,15.90
2022-11-21T00:53:47.631Z,15.83
2022-11-21T00:56:18.089Z,15.68
2022-11-21T00:58:47.528Z,15.76
2022-11-21T01:01:21.751Z,15.77
2022-11-21T01:03:52.151Z,15.62
2022-11-21T01:06:24.836Z,15.60
2022-11-21T01:08:56.520Z,15.51
2022-11-21T01:11:31.665Z,15.54
2022-11-21T01:14:02.594Z,15.53
2022-11-21T01:16:33.309Z,15.53
2022-11-21T01:19:02.967Z,15.60
2022-11-21T01:21:34.277Z,15.65
2022-11-21T01:24:04.662Z,15.62
2022-11-21T01:26:35.263Z,15.61
2022-11-21T01:29:04.431Z,15.60
2022-11-21T01:31:33.393Z,15.52
2022-11-21T01:34:03.044Z,15.40
2022-11-21T01:36:36.648Z,15.52
2022-11-21T01:39:08.836Z,15.50
2022-11-21T01:41:44.388Z,15.51
2022-11-21T01:44:22.238Z,15.58
2022-11-21T01:46:53.211Z,15.60
2022-11-21T01:49:29.238Z,15.69
2022-11-21T01:52:16.629Z,15.67
2022-11-21T01:55:06.937Z,15.91
2022-11-21T01:57:49.486Z,15.99
2022-11-21T02:00:26.983Z,15.89
2022-11-21T02:03:02.236Z,16.00
2022-11-21T02:05:37.054Z,16.05
2022-11-21T02:08:15.781Z,16.17
2022-11-21T02:11:10.129Z,16.21
2022-11-21T02:13:39.862Z,16.19
2022-11-21T02:16:10.656Z,16.20
2022-11-21T02:18:41.337Z,16.25
2022-11-21T02:21:34.143Z,16.39
2022-11-21T02:24:40.866Z,16.38
2022-11-21T02:27:12.000Z,16.38
2022-11-21T02:29:42.319Z,16.35
2022-11-21T02:32:26.214Z,16.46
2022-11-21T02:34:56.243Z,16.42
2022-11-21T02:37:26.218Z,16.46
2022-11-21T02:39:57.841Z,16.52
2022-11-21T02:42:52.814Z,16.72
2022-11-21T02:45:31.982Z,16.69
2022-11-21T02:48:04.274Z,16.66
2022-11-21T02:50:37.469Z,16.79
2022-11-21T02:53:10.111Z,16.87
2022-11-21T02:55:40.437Z,16.95
2022-11-21T02:58:10.193Z,16.97
2022-11-21T03:00:43.271Z,17.09
2022-11-21T03:03:13.705Z,17.07
2022-11-21T03:05:44.253Z,17.19
2022-11-21T03:08:13.936Z,17.30
2022-11-21T03:10:43.545Z,17.29
2022-11-21T03:13:13.382Z,17.42
2022-11-21T03:15:42.881Z,17.47
2022-11-21T03:18:12.615Z,17.56
2022-11-21T03:20:42.573Z,17.62
2022-11-21T03:23:12.481Z,17.73
2022-11-21T03:25:42.097Z,17.81
2022-11-21T03:28:11.966Z,17.94
2022-11-21T03:30:41.596Z,17.99
2022-11-21T03:33:11.117Z,17.95
2022-11-21T03:35:41.246Z,18.01
2022-11-21T03:38:10.831Z,18.26
2022-11-21T03:40:40.611Z,18.36
2022-11-21T03:43:09.892Z,18.38
2022-11-21T03:45:39.550Z,18.46
2022-11-21T03:48:09.390Z,18.57
2022-11-21T03:50:38.811Z,18.58
2022-11-21T03:53:08.026Z,18.76
2022-11-21T03:55:37.068Z,18.67
2022-11-21T03:58:06.215Z,18.90
2022-11-21T04:00:35.309Z,18.77
2022-11-21T04:03:04.616Z,18.94
2022-11-21T04:05:33.751Z,19.14
2022-11-21T04:08:02.686Z,19.12
2022-11-21T04:10:31.926Z,19.14
2022-11-21T04:13:01.122Z,19.20
2022-11-21T04:15:30.352Z,19.29
2022-11-21T04:17:59.219Z,19.51
2022-11-21T04:20:28.367Z,19.65
2022-11-21T04:23:00.576Z,19.53
2022-11-21T04:25:29.792Z,19.56
2022-11-21T04:27:59.863Z,19.71
2022-11-21T04:30:29.807Z,19.78
2022-11-21T04:32:59.071Z,19.87
2022-11-21T04:35:28.813Z,19.83
2022-11-21T04:37:57.961Z,19.84
2022-11-21T04:40:27.059Z,19.88
2022-11-21T04:42:56.348Z,20.03
2022-11-21T04:45:25.432Z,19.95
2022-11-21T04:47:54.677Z,20.14
2022-11-21T04:50:24.282Z,20.20
2022-11-21T04:52:58.418Z,20.40
2022-11-21T04:55:31.088Z,20.47
2022-11-21T04:58:00.670Z,20.49
2022-11-21T05:00:29.943Z,20.51
2022-11-21T05:03:05.902Z,20.64
2022-11-21T05:05:35.285Z,20.68
2022-11-21T05:08:04.231Z,20.68
2022-11-21T05:10:53.196Z,20.83
2022-11-21T05:13:22.249Z,20.91
2022-11-21T05:15:57.428Z,21.05
2022-11-21T05:18:26.439Z,21.04
2022-11-21T05:20:55.506Z,21.09
2022-11-21T05:23:24.898Z,21.19
2022-11-21T05:25:53.818Z,21.30
2022-11-21T05:28:22.722Z,21.38
2022-11-21T05:30:52.021Z,21.41
2022-11-21T05:33:21.363Z,21.52
2022-11-21T05:35:50.210Z,21.68
2022-11-21T05:38:19.199Z,21.66
2022-11-21T05:40:48.257Z,21.77
2022-11-21T05:43:35.768Z,21.87
2022-11-21T05:46:07.788Z,21.90
2022-11-21T05:48:38.065Z,21.98
2022-11-21T05:51:07.171Z,22.25
2022-11-21T05:53:37.487Z,22.33
2022-11-21T05:56:09.055Z,22.40
2022-11-21T05:58:38.204Z,22.46
2022-11-21T06:01:09.673Z,22.63
2022-11-21T06:03:41.496Z,22.69
2022-11-21T06:06:16.962Z,22.81
2022-11-21T06:08:49.014Z,22.75
2022-11-21T06:11:18.409Z,22.85
2022-11-21T06:13:47.663Z,22.88
2022-11-21T06:16:19.488Z,23.03
2022-11-21T06:18:56.686Z,22.99
2022-11-21T06:21:30.642Z,23.10
2022-11-21T06:24:00.301Z,23.12
2022-11-21T06:26:29.659Z,23.18
2022-11-21T06:28:58.804Z,23.25
2022-11-21T06:31:28.563Z,23.28
2022-11-21T06:34:01.120Z,23.32
2022-11-21T06:36:29.925Z,23.55
2022-11-21T06:38:59.666Z,23.46
2022-11-21T06:41:32.130Z,23.58
2022-11-21T06:44:02.366Z,23.63
2022-11-21T06:46:31.362Z,23.58
2022-11-21T06:49:00.481Z,23.60
2022-11-21T06:51:29.763Z,23.65
2022-11-21T06:54:00.642Z,23.72
2022-11-21T06:56:32.150Z,23.75
2022-11-21T06:59:01.743Z,23.78
2022-11-21T07:01:30.930Z,23.84
2022-11-21T07:04:00.107Z,23.75
2022-11-21T07:06:29.292Z,23.97
2022-11-21T07:09:31.719Z,23.94
2022-11-21T07:11:47.505Z,23.99
2022-11-21T07:14:16.703Z,23.96
2022-11-21T07:16:45.856Z,24.04
2022-11-21T07:19:15.023Z,24.04
2022-11-21T07:21:44.275Z,24.09
2022-11-21T07:24:14.042Z,23.96
2022-11-21T07:26:43.307Z,24.28
2022-11-21T07:29:12.081Z,24.31
2022-11-21T07:31:41.125Z,24.39
2022-11-21T07:34:10.114Z,24.46
2022-11-21T07:36:41.415Z,24.34
2022-11-21T07:39:10.276Z,24.38
2022-11-21T07:41:42.382Z,24.42
2022-11-21T07:44:11.470Z,24.49
2022-11-21T07:46:41.822Z,24.49
2022-11-21T07:49:10.875Z,24.53
2022-11-21T07:51:39.736Z,24.55
2022-11-21T07:54:09.258Z,24.53
2022-11-21T07:56:38.524Z,24.49
2022-11-21T07:59:07.639Z,24.65
2022-11-21T08:01:39.235Z,24.69
2022-11-21T08:04:12.036Z,24.68
2022-11-21T08:06:41.152Z,24.69
2022-11-21T08:09:10.210Z,24.63
2022-11-21T08:11:39.218Z,24.74
2022-11-21T08:14:08.158Z,24.79
2022-11-21T08:16:37.765Z,24.80
2022-11-21T08:19:07.789Z,24.83
2022-11-21T08:21:36.841Z,24.90
2022-11-21T08:24:06.532Z,24.82
2022-11-21T08:26:35.404Z,24.82
2022-11-21T08:29:04.554Z,24.87
2022-11-21T08:31:33.680Z,24.89
2022-11-21T08:34:03.068Z,24.91
2022-11-21T08:36:32.459Z,24.94
2022-11-21T08:39:01.789Z,24.93
2022-11-21T08:41:57.044Z,24.99
2022-11-21T08:44:26.456Z,24.91
2022-11-21T08:46:56.824Z,25.02
2022-11-21T08:49:26.202Z,25.07
2022-11-21T08:51:55.746Z,25.05
2022-11-21T08:54:26.751Z,25.15
2022-11-21T08:56:56.149Z,25.05
2022-11-21T08:59:24.987Z,25.09
2022-11-21T09:01:54.279Z,25.03
2022-11-21T09:04:23.162Z,25.04
2022-11-21T09:06:52.583Z,25.09
2022-11-21T09:09:25.362Z,25.08
2022-11-21T09:11:55.011Z,25.06
2022-11-21T09:14:42.877Z,25.08
2022-11-21T09:17:34.176Z,25.23
2022-11-21T09:20:03.527Z,25.10
2022-11-21T09:22:35.435Z,25.10
2022-11-21T09:25:05.563Z,25.06
2022-11-21T09:27:34.621Z,25.13
2022-11-21T09:30:03.890Z,25.20
2022-11-21T09:32:33.645Z,25.20
2022-11-21T09:35:02.624Z,25.20
2022-11-21T09:37:32.076Z,25.25
2022-11-21T09:40:02.044Z,25.26
2022-11-21T09:42:36.863Z,25.33
2022-11-21T09:45:22.628Z,25.26
2022-11-21T09:47:53.563Z,25.14
2022-11-21T09:50:42.764Z,25.28
2022-11-21T09:53:15.445Z,25.19
2022-11-21T09:55:47.343Z,25.28
2022-11-21T09:58:33.117Z,25.07
2022-11-21T10:01:02.863Z,25.01
2022-11-21T10:03:37.501Z,25.06
2022-11-21T10:06:15.260Z,25.07
2022-11-21T10:09:13.309Z,25.15
2022-11-21T10:12:26.790Z,25.13
2022-11-21T10:15:06.259Z,24.97
2022-11-21T10:18:17.134Z,25.12
2022-11-21T10:21:12.830Z,25.09
2022-11-21T10:24:00.035Z,25.10
2022-11-21T10:26:51.982Z,25.03
2022-11-21T10:29:24.144Z,24.97
2022-11-21T10:31:58.776Z,24.96
2022-11-21T10:34:32.686Z,25.02
2022-11-21T10:37:38.267Z,25.04
2022-11-21T10:40:16.970Z,25.04
2022-11-21T10:42:49.497Z,24.90
2022-11-21T10:45:20.177Z,24.82
2022-11-21T10:47:51.578Z,24.83
2022-11-21T10:50:56.171Z,24.88
2022-11-21T10:53:45.315Z,24.80
2022-11-21T10:56:21.597Z,24.78
2022-11-21T10:58:56.160Z,24.86
2022-11-21T11:01:30.319Z,24.76
2022-11-21T11:04:28.506Z,24.77
2022-11-21T11:07:00.993Z,24.55
2022-11-21T11:09:35.447Z,24.64
2022-11-21T11:12:48.098Z,24.63
2022-11-21T11:15:26.191Z,24.48
2022-11-21T11:18:09.457Z,24.50
2022-11-21T11:20:39.132Z,24.39
2022-11-21T11:23:29.197Z,24.48
2022-11-21T11:26:00.550Z,24.33
2022-11-21T11:28:37.245Z,24.30
2022-11-21T11:31:06.957Z,24.13
2022-11-21T11:33:41.002Z,24.13
2022-11-21T11:36:35.344Z,24.12
2022-11-21T11:39:39.862Z,24.03
2022-11-21T11:42:40.432Z,23.95
2022-11-21T11:45:34.938Z,23.73
2022-11-21T11:48:13.569Z,23.82
2022-11-21T11:50:52.875Z,23.75
2022-11-21T11:53:27.714Z,23.63
2022-11-21T11:56:07.258Z,23.51
2022-11-21T11:58:43.020Z,23.50
2022-11-21T12:01:31.930Z,23.42
2022-11-21T12:04:03.779Z,23.28
2022-11-21T12:07:54.027Z,23.19
2022-11-21T12:09:48.994Z,22.99
2022-11-21T12:12:40.633Z,22.87
2022-11-21T12:15:49.134Z,22.67
2022-11-21T12:18:21.254Z,22.53
2022-11-21T12:21:09.621Z,22.44
2022-11-21T12:23:47.274Z,22.36
2022-11-21T12:26:22.847Z,22.26
2022-11-21T12:29:01.584Z,22.10
2022-11-21T12:31:57.252Z,22.17
2022-11-21T12:34:41.080Z,22.06
2022-11-21T12:37:20.930Z,21.92
2022-11-21T12:39:54.317Z,21.93
2022-11-21T12:42:50.807Z,21.90
2022-11-21T12:45:35.704Z,21.85
2022-11-21T12:48:26.344Z,21.69
2022-11-21T12:51:46.015Z,21.65
2022-11-21T12:54:44.860Z,21.52
2022-11-21T12:57:21.280Z,21.34
2022-11-21T12:59:53.394Z,21.32
2022-11-21T13:02:40.658Z,21.19
2022-11-21T13:05:15.019Z,21.19
2022-11-21T13:07:46.457Z,21.10
2022-11-21T13:10:18.723Z,21.06
2022-11-21T13:13:15.817Z,21.05
2022-11-21T13:15:59.371Z,21.05
2022-11-21T13:18:35.319Z,21.00
2022-11-21T13:21:04.381Z,20.85
2022-11-21T13:23:43.185Z,20.92
2022-11-21T13:26:27.418Z,20.94
2022-11-21T13:29:15.946Z,20.87
2022-11-21T13:31:45.057Z,20.69
2022-11-21T13:34:35.324Z,20.82
2022-11-21T13:37:05.558Z,20.65
2022-11-21T13:39:36.849Z,20.63
2022-11-21T13:42:26.966Z,20.60
2022-11-21T13:44:56.419Z,20.52
2022-11-21T13:48:06.292Z,20.67
2022-11-21T13:50:59.080Z,20.45
2022-11-21T13:53:58.450Z,20.59
2022-11-21T13:56:39.289Z,20.37
2022-11-21T13:59:52.765Z,20.50
2022-11-21T14:02:32.193Z,20.53
2022-11-21T14:05:37.613Z,20.45
2022-11-21T14:08:23.479Z,20.41
2022-11-21T14:10:54.041Z,20.27
2022-11-21T14:13:39.302Z,20.32
2022-11-21T14:16:36.740Z,20.32
2022-11-21T14:19:06.935Z,20.18
2022-11-21T14:21:36.278Z,20.12
2022-11-21T14:24:14.388Z,20.11
2022-11-21T14:26:49.137Z,20.13
2022-11-21T14:29:28.248Z,20.02
2022-11-21T14:31:57.703Z,19.95
2022-11-21T14:34:29.888Z,20.01
2022-11-21T14:37:02.111Z,19.99
2022-11-21T14:39:40.014Z,20.01
2022-11-21T14:42:15.984Z,19.97
2022-11-21T14:44:45.847Z,19.96
2022-11-21T14:47:26.112Z,20.00
2022-11-21T14:50:02.406Z,19.89
2022-11-21T14:52:36.176Z,19.84
2022-11-21T14:55:32.937Z,19.83
2022-11-21T14:57:59.069Z,19.72
2022-11-21T15:00:58.125Z,19.69
2022-11-21T15:03:24.419Z,19.74
2022-11-21T15:06:07.473Z,19.71
2022-11-21T15:11:41.313Z,19.64
2022-11-21T15:14:41.167Z,19.63
2022-11-21T15:17:15.728Z,19.56
2022-11-21T15:19:48.250Z,19.55
2022-11-21T15:22:38.746Z,19.58
2022-11-21T15:25:21.306Z,19.51
2022-11-21T15:28:05.880Z,19.43
2022-11-21T15:30:36.859Z,19.36
2022-11-21T15:33:22.175Z,19.32
2022-11-21T15:35:58.922Z,19.37
2022-11-21T15:38:44.523Z,19.33
2022-11-21T15:41:16.782Z,19.21
2022-11-21T15:43:51.675Z,19.17
2022-11-21T15:46:27.893Z,19.24
2022-11-21T15:49:30.965Z,19.19
2022-11-21T15:52:11.523Z,19.14
2022-11-21T15:54:41.018Z,19.07
2022-11-21T15:57:13.743Z,19.13
2022-11-21T15:59:44.380Z,19.00
2022-11-21T16:02:15.464Z,19.08
2022-11-21T16:04:45.143Z,19.01
2022-11-21T16:07:20.275Z,19.00
2022-11-21T16:09:49.588Z,19.00
2022-11-21T16:12:18.879Z,18.99
2022-11-21T16:14:47.953Z,18.90
2022-11-21T16:17:17.392Z,18.88
2022-11-21T16:19:47.218Z,18.84
2022-11-21T16:22:19.830Z,18.82
2022-11-21T16:24:49.567Z,18.74
2022-11-21T16:27:20.474Z,18.67
2022-11-21T16:29:49.605Z,18.60
2022-11-21T16:32:18.802Z,18.58
2022-11-21T16:34:49.051Z,18.60
2022-11-21T16:37:20.226Z,18.56
2022-11-21T16:39:58.015Z,18.55
2022-11-21T16:42:27.413Z,18.58
2022-11-21T16:44:56.652Z,18.58
2022-11-21T16:47:26.261Z,18.60
2022-11-21T16:49:55.641Z,18.57
2022-11-21T16:52:27.739Z,18.57
2022-11-21T16:54:57.301Z,18.52
2022-11-21T16:57:26.568Z,18.47
2022-11-21T16:59:57.777Z,18.43
2022-11-21T17:02:28.183Z,18.43
2022-11-21T17:04:57.540Z,18.41
2022-11-21T17:07:27.827Z,18.42
2022-11-21T17:09:56.894Z,18.38
2022-11-21T17:12:25.821Z,18.35
2022-11-21T17:14:55.482Z,18.33
2022-11-21T17:17:26.098Z,18.34
2022-11-21T17:19:55.740Z,18.31
2022-11-21T17:22:27.504Z,18.21
2022-11-21T17:25:01.030Z,18.19
2022-11-21T17:27:32.649Z,18.23
2022-11-21T17:30:02.762Z,18.24
2022-11-21T17:32:31.713Z,18.18
2022-11-21T17:35:00.826Z,18.17
2022-11-21T17:37:30.247Z,18.14
2022-11-21T17:40:00.616Z,18.07
2022-11-21T17:42:29.750Z,18.11
2022-11-21T17:45:00.027Z,18.03
2022-11-21T17:47:30.720Z,18.06
2022-11-21T17:50:06.240Z,18.30
2022-11-21T17:52:36.137Z,18.17
2022-11-21T17:55:09.933Z,18.12
2022-11-21T17:57:40.252Z,18.13
2022-11-21T18:00:10.680Z,18.11
2022-11-21T18:02:39.954Z,18.08
2022-11-21T18:05:09.702Z,18.10
2022-11-21T18:07:38.782Z,18.05
2022-11-21T18:12:57.498Z,17.97
2022-11-21T18:15:26.866Z,17.91
2022-11-21T18:17:56.079Z,17.91
2022-11-21T18:20:25.057Z,17.89
2022-11-21T18:22:54.732Z,17.87
2022-11-21T18:25:23.797Z,17.83
2022-11-21T18:27:54.773Z,17.75
2022-11-21T18:30:24.052Z,17.67
2022-11-21T18:32:53.057Z,17.65
2022-11-21T18:35:22.127Z,17.67
2022-11-21T18:37:51.348Z,17.67
2022-11-21T18:40:20.507Z,17.67
2022-11-21T18:42:50.038Z,17.62
2022-11-21T18:45:18.907Z,17.66
2022-11-21T18:47:48.462Z,17.67
2022-11-21T18:50:18.401Z,17.68
2022-11-21T18:52:47.440Z,17.69
2022-11-21T18:55:16.680Z,17.67
2022-11-21T18:57:46.951Z,17.65
2022-11-21T19:00:17.471Z,17.63
2022-11-21T19:02:47.982Z,17.66
2022-11-21T19:05:20.473Z,17.66
2022-11-21T19:07:49.864Z,17.65
2022-11-21T19:10:42.192Z,17.67
2022-11-21T19:13:08.260Z,17.67
2022-11-21T19:15:40.418Z,17.67
2022-11-21T19:18:09.740Z,17.67
2022-11-21T19:20:40.660Z,17.67
2022-11-21T19:23:10.045Z,17.60
2022-11-21T19:25:40.506Z,17.60
2022-11-21T19:28:09.702Z,17.41
2022-11-21T19:30:38.642Z,17.43
2022-11-21T19:33:07.909Z,17.48
2022-11-21T19:35:39.023Z,17.57
2022-11-21T19:38:08.176Z,17.55
2022-11-21T19:40:58.083Z,17.58
2022-11-21T19:43:30.982Z,17.57
2022-11-21T19:46:04.590Z,17.62
2022-11-21T19:48:33.620Z,17.43
2022-11-21T19:51:04.249Z,17.41
2022-11-21T19:53:40.331Z,17.38
2022-11-21T19:56:11.289Z,17.34
2022-11-21T19:58:41.276Z,17.34
2022-11-21T20:01:16.506Z,17.45
2022-11-21T20:03:50.224Z,17.39
2022-11-21T20:06:25.799Z,17.31
2022-11-21T20:08:57.322Z,17.30
2022-11-21T20:11:27.745Z,17.32
2022-11-21T20:14:00.116Z,17.33
2022-11-21T20:16:33.204Z,17.36
2022-11-21T20:19:07.716Z,17.32
2022-11-21T20:21:38.779Z,17.37
2022-11-21T20:24:09.133Z,17.36
2022-11-21T20:26:38.839Z,17.30
2022-11-21T20:29:08.285Z,17.23
2022-11-21T20:31:38.651Z,17.15
2022-11-21T20:34:13.395Z,17.13
2022-11-21T20:36:44.079Z,17.16
2022-11-21T20:39:18.437Z,17.26
2022-11-21T20:41:49.150Z,17.19
2022-11-21T20:47:10.856Z,17.16
2022-11-21T20:49:40.432Z,17.10
2022-11-21T20:54:58.316Z,17.11
2022-11-21T20:57:30.470Z,17.11
2022-11-21T20:59:59.928Z,17.14
2022-11-21T21:02:28.806Z,17.10
2022-11-21T21:04:58.198Z,17.11
2022-11-21T21:07:27.320Z,17.10
2022-11-21T21:09:58.044Z,17.07
2022-11-21T21:12:28.530Z,17.03
2022-11-21T21:14:58.161Z,17.04
2022-11-21T21:17:26.935Z,17.02
2022-11-21T21:19:55.930Z,17.02
2022-11-21T21:22:24.946Z,16.99
2022-11-21T21:24:54.086Z,16.93
2022-11-21T21:27:23.008Z,16.90
2022-11-21T21:29:51.896Z,16.90
2022-11-21T21:32:20.755Z,16.94
2022-11-21T21:34:49.878Z,16.86
2022-11-21T21:37:21.757Z,16.96
2022-11-21T21:39:51.308Z,16.92
2022-11-21T21:42:20.330Z,16.87
2022-11-21T21:44:49.519Z,16.92
2022-11-21T21:47:22.216Z,16.95
2022-11-21T21:49:51.922Z,16.94
2022-11-21T21:52:20.774Z,16.88
2022-11-21T21:54:49.875Z,16.88
2022-11-21T21:57:18.863Z,16.83
2022-11-21T21:59:47.766Z,16.84
2022-11-21T22:02:17.029Z,16.78
2022-11-21T22:04:50.599Z,16.81
2022-11-21T22:07:21.136Z,16.80
2022-11-21T22:09:50.194Z,16.83
2022-11-21T22:12:19.076Z,16.88
2022-11-21T22:14:48.156Z,16.89
2022-11-21T22:17:17.692Z,16.96
2022-11-21T22:19:46.449Z,16.94
2022-11-21T22:22:15.449Z,16.93
2022-11-21T22:24:44.819Z,16.94
2022-11-21T22:27:13.804Z,16.93
2022-11-21T22:29:43.115Z,16.92
2022-11-21T22:32:16.635Z,16.92
2022-11-21T22:34:48.458Z,16.94
2022-11-21T22:37:17.448Z,16.89
2022-11-21T22:39:46.431Z,16.83
2022-11-21T22:42:15.369Z,16.75
2022-11-21T22:44:44.436Z,16.64
2022-11-21T22:47:13.214Z,16.64
2022-11-21T22:49:42.264Z,16.60
2022-11-21T22:52:11.306Z,16.58
2022-11-21T22:54:40.686Z,16.54
2022-11-21T22:57:09.496Z,16.53
2022-11-21T22:59:38.591Z,16.55
2022-11-21T23:02:07.742Z,16.60
2022-11-21T23:04:56.923Z,16.56
2022-11-21T23:07:25.930Z,16.55
2022-11-21T23:09:54.823Z,16.52
2022-11-21T23:12:24.248Z,16.43
2022-11-21T23:14:53.919Z,16.47
2022-11-21T23:17:22.837Z,16.45
2022-11-21T23:19:51.703Z,16.47
2022-11-21T23:22:20.740Z,16.44
2022-11-21T23:24:49.617Z,16.40
2022-11-21T23:27:18.579Z,16.38
2022-11-21T23:29:47.512Z,16.28
2022-11-21T23:32:16.509Z,16.30
2022-11-21T23:34:45.498Z,16.32
2022-11-21T23:37:14.430Z,16.35
2022-11-21T23:39:43.947Z,16.39
2022-11-21T23:42:12.803Z,16.41
2022-11-21T23:44:41.834Z,16.42
2022-11-21T23:47:10.639Z,16.38
2022-11-21T23:49:39.659Z,16.39
2022-11-21T23:52:08.724Z,16.41
2022-11-21T23:54:37.700Z,16.36
2022-11-21T23:57:07.077Z,16.29
2022-11-21T23:59:35.889Z,16.28
